Time;durP1;ratioP1;P1;durP2;ratioP2;P2;SDS_P1;SDS_P2;PMS_P1;PMS_P2;Temp;Humidity;BMP_temperature;BMP_pressure;BME280_temperature;BME280_humidity;BME280_pressure;Samples;Min_cycle;Max_cycle;Signal;HPM_P1;HPM_P2
2023/12/22 00:00:20;;;;;;;8.82;1.42;;;20.00;73.90;;;;;;2068869;28;20023;-52
2023/12/22 00:01:20;;;;;;;5.90;1.35;;;20.00;73.80;;;;;;2071566;28;20419;-51
2023/12/22 00:02:23;;;;;;;5.53;1.45;;;19.90;73.80;;;;;;2068770;28;20543;-50
2023/12/22 00:03:24;;;;;;;4.25;1.10;;;20.00;73.90;;;;;;2068969;28;20528;-54
2023/12/22 00:04:24;;;;;;;6.03;1.48;;;20.00;73.70;;;;;;2072368;28;20029;-53
2023/12/22 00:05:25;;;;;;;9.65;1.50;;;20.00;73.70;;;;;;2072334;28;20083;-55
2023/12/22 00:06:26;;;;;;;4.40;1.75;;;20.00;73.80;;;;;;2068232;28;20018;-54
2023/12/22 00:07:28;;;;;;;5.65;1.52;;;20.00;73.70;;;;;;2069118;28;20037;-53
2023/12/22 00:08:28;;;;;;;3.97;1.50;;;20.10;73.80;;;;;;2068757;28;20025;-54
2023/12/22 00:09:29;;;;;;;5.10;1.48;;;20.00;73.80;;;;;;2067446;28;20429;-53
2023/12/22 00:10:29;;;;;;;5.05;1.38;;;20.00;73.70;;;;;;2071577;28;20396;-54
2023/12/22 00:11:30;;;;;;;7.15;1.50;;;20.00;73.70;;;;;;2068735;28;20555;-50
2023/12/22 00:12:30;;;;;;;7.70;1.35;;;19.90;73.70;;;;;;2068523;28;20022;-53
2023/12/22 00:13:33;;;;;;;7.35;1.90;;;19.90;73.60;;;;;;2067446;28;20355;-52
2023/12/22 00:14:33;;;;;;;4.03;1.27;;;20.00;73.60;;;;;;2071012;28;20461;-54
2023/12/22 00:15:34;;;;;;;4.60;1.65;;;20.00;73.60;;;;;;2072139;28;20014;-52
2023/12/22 00:16:37;;;;;;;5.15;1.33;;;20.00;73.60;;;;;;2069303;28;20443;-52
2023/12/22 00:17:38;;;;;;;5.47;1.70;;;20.00;73.50;;;;;;2072524;28;20014;-51
2023/12/22 00:18:38;;;;;;;5.35;1.38;;;20.00;73.60;;;;;;2072367;28;20017;-53
2023/12/22 00:19:39;;;;;;;7.07;1.88;;;20.00;73.50;;;;;;2070544;28;20381;-51
2023/12/22 00:20:39;;;;;;;3.83;1.13;;;20.00;73.50;;;;;;2072638;28;20456;-54
2023/12/22 00:21:40;;;;;;;5.18;1.52;;;20.00;73.50;;;;;;2070467;28;20050;-52
2023/12/22 00:22:40;;;;;;;3.15;1.17;;;20.00;73.40;;;;;;2068233;28;20085;-54
2023/12/22 00:23:41;;;;;;;8.93;1.42;;;19.80;73.20;;;;;;2072517;28;20022;-50
2023/12/22 00:24:41;;;;;;;4.32;1.20;;;19.90;73.30;;;;;;2068312;28;20030;-50
2023/12/22 00:25:42;;;;;;;5.53;1.52;;;20.00;73.20;;;;;;2069099;28;20060;-54
2023/12/22 00:26:43;;;;;;;3.55;1.20;;;19.90;73.80;;;;;;2071552;28;20018;-50
2023/12/22 00:27:43;;;;;;;6.15;1.67;;;19.90;73.10;;;;;;2068400;28;20105;-54
2023/12/22 00:28:44;;;;;;;4.32;1.20;;;19.90;73.10;;;;;;2068687;28;20025;-54
2023/12/22 00:29:44;;;;;;;4.65;1.38;;;20.00;73.10;;;;;;2070545;28;20029;-52
2023/12/22 00:30:45;;;;;;;7.63;1.50;;;19.90;73.10;;;;;;2071849;28;20022;-53
2023/12/22 00:31:46;;;;;;;5.18;1.45;;;19.80;73.00;;;;;;2069061;28;20067;-50
2023/12/22 00:32:46;;;;;;;4.80;1.10;;;20.00;73.00;;;;;;2068055;28;20021;-53
2023/12/22 00:33:47;;;;;;;6.00;1.70;;;20.00;72.90;;;;;;2069131;28;20026;-53
2023/12/22 00:34:47;;;;;;;4.50;1.25;;;20.00;72.90;;;;;;2071737;28;20033;-53
2023/12/22 00:35:48;;;;;;;4.80;1.20;;;20.00;72.90;;;;;;2068321;28;20030;-52
2023/12/22 00:36:48;;;;;;;5.90;1.30;;;19.90;72.70;;;;;;2072626;28;20065;-53
2023/12/22 00:37:49;;;;;;;4.88;1.60;;;19.90;72.80;;;;;;2071638;28;20030;-53
2023/12/22 00:38:50;;;;;;;4.32;1.20;;;19.90;72.90;;;;;;2067131;28;20025;-53
2023/12/22 00:39:51;;;;;;;3.45;0.95;;;19.90;72.80;;;;;;2072347;28;20022;-51
2023/12/22 00:40:51;;;;;;;4.90;1.27;;;19.90;72.80;;;;;;2068598;28;20038;-52
2023/12/22 00:41:52;;;;;;;5.82;1.20;;;19.90;72.70;;;;;;2069312;28;20065;-52
2023/12/22 00:42:52;;;;;;;5.95;1.20;;;19.90;72.70;;;;;;2071515;28;20041;-55
2023/12/22 00:43:53;;;;;;;5.43;1.63;;;19.90;72.70;;;;;;2070831;28;20037;-50
2023/12/22 00:44:53;;;;;;;3.55;1.27;;;19.90;72.80;;;;;;2069142;28;20073;-51
2023/12/22 00:45:55;;;;;;;4.47;1.27;;;19.90;72.70;;;;;;2070491;28;20032;-53
2023/12/22 00:46:56;;;;;;;2.50;1.17;;;19.80;72.50;;;;;;2068293;28;20443;-54
2023/12/22 00:47:57;;;;;;;4.38;1.35;;;20.00;72.70;;;;;;2070051;28;20084;-51
2023/12/22 00:48:57;;;;;;;5.10;1.30;;;19.80;72.50;;;;;;2070071;28;20052;-53
2023/12/22 00:49:58;;;;;;;4.22;1.23;;;19.80;72.50;;;;;;2071828;28;20531;-52
2023/12/22 00:50:58;;;;;;;4.07;1.15;;;19.90;72.60;;;;;;2071130;28;20061;-50
2023/12/22 00:51:59;;;;;;;4.22;1.17;;;19.90;72.60;;;;;;2068470;28;20097;-52
2023/12/22 00:53:00;;;;;;;4.72;1.20;;;19.90;72.50;;;;;;2068977;28;20054;-50
2023/12/22 00:54:00;;;;;;;5.60;1.35;;;19.90;72.50;;;;;;2069261;28;20026;-50
2023/12/22 00:55:01;;;;;;;4.40;1.60;;;19.80;72.50;;;;;;2068007;28;20018;-52
2023/12/22 00:56:05;;;;;;;6.00;1.10;;;19.90;72.50;;;;;;2070743;28;20022;-50
2023/12/22 00:57:06;;;;;;;5.10;1.73;;;19.90;72.60;;;;;;2071346;28;20026;-50
2023/12/22 00:58:06;;;;;;;5.15;1.60;;;20.00;72.70;;;;;;2071956;28;20026;-52
2023/12/22 00:59:07;;;;;;;4.03;1.15;;;19.90;72.60;;;;;;2070732;28;20033;-50
2023/12/22 01:00:12;;;;;;;4.15;1.40;;;19.80;72.50;;;;;;2070077;28;20034;-51
2023/12/22 01:01:12;;;;;;;7.03;1.38;;;19.80;72.50;;;;;;2068473;28;20053;-50
2023/12/22 01:02:16;;;;;;;6.43;1.50;;;19.80;72.50;;;;;;2069301;28;20206;-50
2023/12/22 01:03:17;;;;;;;4.35;1.15;;;19.90;72.50;;;;;;2068428;28;20489;-52
2023/12/22 01:04:17;;;;;;;7.05;1.30;;;19.80;72.40;;;;;;2071957;28;20109;-54
2023/12/22 01:05:18;;;;;;;3.95;1.25;;;19.80;72.40;;;;;;2070492;28;20468;-50
2023/12/22 01:06:18;;;;;;;5.63;1.40;;;19.90;72.60;;;;;;2068543;28;20101;-52
2023/12/22 01:07:19;;;;;;;5.60;1.65;;;19.80;72.50;;;;;;2070245;28;20344;-53
2023/12/22 01:08:20;;;;;;;6.10;1.58;;;19.80;72.60;;;;;;2071739;28;20021;-50
2023/12/22 01:09:21;;;;;;;4.47;1.30;;;19.80;72.60;;;;;;2067206;28;20024;-51
2023/12/22 01:10:21;;;;;;;5.22;1.45;;;19.80;72.60;;;;;;2067847;28;20333;-50
2023/12/22 01:11:22;;;;;;;4.10;1.20;;;19.80;72.50;;;;;;2067790;28;20018;-54
2023/12/22 01:12:22;;;;;;;8.82;1.13;;;19.70;72.40;;;;;;2068560;28;20022;-52
2023/12/22 01:13:23;;;;;;;6.47;1.50;;;19.80;72.50;;;;;;2070186;28;20032;-52
2023/12/22 01:14:23;;;;;;;5.72;1.20;;;19.90;72.30;;;;;;2071696;28;20022;-50
2023/12/22 01:15:24;;;;;;;2.22;1.42;;;19.90;72.20;;;;;;2069316;28;20034;-50
2023/12/22 01:16:25;;;;;;;4.97;1.27;;;19.90;72.10;;;;;;2068894;28;20405;-50
2023/12/22 01:17:25;;;;;;;3.22;1.10;;;19.80;72.00;;;;;;2072113;28;20053;-52
2023/12/22 01:18:29;;;;;;;4.55;1.40;;;19.80;72.20;;;;;;2068778;28;20101;-50
2023/12/22 01:19:29;;;;;;;6.30;1.10;;;19.80;72.00;;;;;;2068569;28;20113;-51
2023/12/22 01:20:30;;;;;;;6.03;1.33;;;19.80;71.90;;;;;;2069003;28;20252;-51
2023/12/22 01:21:30;;;;;;;3.65;0.98;;;19.80;71.80;;;;;;2071388;28;20171;-51
2023/12/22 01:22:32;;;;;;;4.55;1.52;;;19.80;71.70;;;;;;2068179;28;20375;-50
2023/12/22 01:23:33;;;;;;;4.20;1.20;;;19.80;71.70;;;;;;2068154;28;20018;-52
2023/12/22 01:24:34;;;;;;;3.97;1.10;;;19.80;71.80;;;;;;2069353;28;20033;-50
2023/12/22 01:25:34;;;;;;;4.93;1.70;;;19.80;71.90;;;;;;2069259;28;20111;-51
2023/12/22 01:26:35;;;;;;;4.97;1.27;;;19.80;71.80;;;;;;2068442;28;20068;-51
2023/12/22 01:27:35;;;;;;;4.25;1.25;;;19.80;71.80;;;;;;2068872;28;20026;-51
2023/12/22 01:28:36;;;;;;;3.47;1.20;;;19.80;71.80;;;;;;2069026;28;20030;-50
2023/12/22 01:29:37;;;;;;;2.78;1.20;;;19.80;71.90;;;;;;2071702;28;20069;-51
2023/12/22 01:30:37;;;;;;;3.72;1.00;;;19.80;71.90;;;;;;2068492;28;20366;-51
2023/12/22 01:31:38;;;;;;;6.40;1.38;;;19.80;71.80;;;;;;2072152;28;20018;-53
2023/12/22 01:32:38;;;;;;;5.95;1.38;;;19.70;71.80;;;;;;2068678;28;20021;-51
2023/12/22 01:33:39;;;;;;;4.28;1.17;;;19.80;71.80;;;;;;2072045;28;20018;-51
2023/12/22 01:34:40;;;;;;;4.72;1.23;;;19.80;71.90;;;;;;2068964;28;20046;-52
2023/12/22 01:35:40;;;;;;;4.20;1.15;;;19.80;72.00;;;;;;2068733;28;20361;-51
2023/12/22 01:36:41;;;;;;;4.32;1.10;;;19.80;72.00;;;;;;2068993;28;20032;-50
2023/12/22 01:37:42;;;;;;;4.15;1.10;;;19.80;72.10;;;;;;2070960;28;20026;-54
2023/12/22 01:38:42;;;;;;;3.90;1.30;;;19.80;72.10;;;;;;2068441;28;20272;-52
2023/12/22 01:39:43;;;;;;;5.35;1.25;;;19.80;72.10;;;;;;2068655;28;20033;-52
2023/12/22 01:40:44;;;;;;;4.57;0.98;;;19.70;72.00;;;;;;2071491;28;20389;-50
2023/12/22 01:41:44;;;;;;;6.78;1.27;;;19.70;71.90;;;;;;2068812;28;20036;-50
2023/12/22 01:42:46;;;;;;;3.55;1.08;;;19.70;71.80;;;;;;2068714;28;20017;-53
2023/12/22 01:43:46;;;;;;;3.83;1.00;;;19.70;71.60;;;;;;2070432;28;20288;-51
2023/12/22 01:44:47;;;;;;;5.85;1.27;;;19.70;71.50;;;;;;2069345;28;20076;-51
2023/12/22 01:45:50;;;;;;;4.68;1.20;;;19.70;71.40;;;;;;2069000;28;20448;-53
2023/12/22 01:46:51;;;;;;;5.38;1.50;;;19.80;71.50;;;;;;2067446;28;20026;-53
2023/12/22 01:47:52;;;;;;;4.18;1.20;;;19.80;71.40;;;;;;2069454;28;20080;-51
2023/12/22 01:48:53;;;;;;;3.83;1.48;;;19.70;71.30;;;;;;2069297;28;20034;-50
2023/12/22 01:49:53;;;;;;;8.98;1.45;;;19.70;71.20;;;;;;2068483;28;20305;-51
2023/12/22 01:50:56;;;;;;;4.68;1.38;;;19.70;71.10;;;;;;2069368;28;20033;-50
2023/12/22 01:51:57;;;;;;;3.70;0.90;;;19.70;71.10;;;;;;2071206;28;20523;-53
2023/12/22 01:52:57;;;;;;;3.15;1.30;;;19.70;70.90;;;;;;2069107;28;20030;-50
2023/12/22 01:53:59;;;;;;;6.93;1.17;;;19.80;71.00;;;;;;2068959;28;20105;-53
2023/12/22 01:54:59;;;;;;;5.63;1.27;;;19.70;71.00;;;;;;2067009;28;20029;-50
2023/12/22 01:56:01;;;;;;;4.65;1.30;;;19.70;70.90;;;;;;2069039;28;20058;-50
2023/12/22 01:57:02;;;;;;;4.55;1.00;;;19.70;70.80;;;;;;2068728;28;20427;-51
2023/12/22 01:58:04;;;;;;;5.20;1.20;;;19.70;70.70;;;;;;2068485;28;20057;-53
2023/12/22 01:59:04;;;;;;;5.85;1.50;;;19.80;70.80;;;;;;2070256;28;20396;-50
2023/12/22 02:00:06;;;;;;;6.43;1.25;;;19.80;70.90;;;;;;2070765;28;20032;-53
2023/12/22 02:01:07;;;;;;;3.53;1.05;;;19.70;70.90;;;;;;2069602;28;20030;-50
2023/12/22 02:02:08;;;;;;;3.70;1.20;;;19.70;70.90;;;;;;2069864;28;20026;-51
2023/12/22 02:03:09;;;;;;;6.47;1.30;;;19.70;70.90;;;;;;2068478;28;20041;-50
2023/12/22 02:04:10;;;;;;;3.78;1.20;;;19.70;70.70;;;;;;2068041;28;20034;-50
2023/12/22 02:05:11;;;;;;;7.32;1.83;;;19.70;70.70;;;;;;2069407;28;20028;-51
2023/12/22 02:06:11;;;;;;;6.38;2.35;;;19.70;70.60;;;;;;2070696;28;20061;-50
2023/12/22 02:07:12;;;;;;;5.07;1.27;;;19.70;70.50;;;;;;2065702;28;20053;-50
2023/12/22 02:08:14;;;;;;;3.58;1.30;;;19.70;70.50;;;;;;2067821;28;20206;-50
2023/12/22 02:09:15;;;;;;;4.13;1.35;;;19.60;70.50;;;;;;2068485;28;20030;-52
2023/12/22 02:10:15;;;;;;;4.10;1.30;;;19.70;70.60;;;;;;2068721;28;20515;-51
2023/12/22 02:11:16;;;;;;;6.70;1.25;;;19.80;70.70;;;;;;2068729;28;20022;-52
2023/12/22 02:12:17;;;;;;;8.20;1.58;;;19.70;70.70;;;;;;2069074;28;20041;-52
2023/12/22 02:13:17;;;;;;;4.70;0.95;;;19.70;70.70;;;;;;2071111;28;20022;-52
2023/12/22 02:14:18;;;;;;;2.50;0.80;;;19.70;70.90;;;;;;2070225;28;20022;-50
2023/12/22 02:15:19;;;;;;;4.47;1.20;;;19.70;70.80;;;;;;2069862;28;20030;-50
2023/12/22 02:16:41;;;;;;;3.17;1.20;;;19.70;70.80;;;;;;2068393;28;20184;-52
2023/12/22 02:18:00;;;;;;;5.15;1.33;;;19.60;70.90;;;;;;2068867;28;20026;-51
2023/12/22 02:19:29;;;;;;;4.75;1.30;;;19.60;71.20;;;;;;2068914;28;20017;-50
2023/12/22 02:20:31;;;;;;;4.95;1.23;;;19.60;71.10;;;;;;2066953;28;20473;-50
2023/12/22 02:21:32;;;;;;;4.18;1.17;;;19.60;71.20;;;;;;2071221;28;20024;-50
2023/12/22 02:22:32;;;;;;;2.92;1.00;;;19.60;71.10;;;;;;2070839;28;20273;-50
2023/12/22 02:23:33;;;;;;;4.30;1.15;;;19.60;71.10;;;;;;2070168;28;20021;-53
2023/12/22 02:24:34;;;;;;;5.88;1.60;;;19.60;71.20;;;;;;2067240;28;20027;-52
2023/12/22 02:25:34;;;;;;;4.65;1.30;;;19.60;71.20;;;;;;2069055;28;20109;-51
2023/12/22 02:26:44;;;;;;;4.90;0.98;;;19.70;71.20;;;;;;2071391;28;20109;-51
2023/12/22 02:27:50;;;;;;;6.20;1.15;;;19.50;71.20;;;;;;2071090;28;20034;-51
2023/12/22 02:28:52;;;;;;;3.47;1.20;;;19.60;71.40;;;;;;2068749;28;20118;-51
2023/12/22 02:30:02;;;;;;;2.50;1.00;;;19.60;71.50;;;;;;2069683;28;20050;-50
2023/12/22 02:31:32;;;;;;;5.10;0.98;;;19.60;71.60;;;;;;2070351;28;20026;-53
2023/12/22 02:32:39;;;;;;;2.72;0.98;;;19.60;71.70;;;;;;2069385;28;20248;-51
2023/12/22 02:33:42;;;;;;;4.90;1.38;;;19.60;71.80;;;;;;2069251;28;20145;-50
2023/12/22 02:34:46;;;;;;;4.07;1.50;;;19.60;71.90;;;;;;2071861;28;20366;-53
2023/12/22 02:35:49;;;;;;;3.03;0.80;;;19.60;71.90;;;;;;2070712;28;20063;-51
2023/12/22 02:36:53;;;;;;;3.50;0.90;;;19.60;71.90;;;;;;2071794;28;20346;-50
2023/12/22 02:37:59;;;;;;;4.53;1.00;;;19.60;71.90;;;;;;2067971;28;20038;-51
2023/12/22 02:39:01;;;;;;;2.50;1.00;;;19.50;71.80;;;;;;2069727;28;20029;-50
2023/12/22 02:40:03;;;;;;;4.13;0.88;;;19.60;71.90;;;;;;2067600;28;20026;-52
2023/12/22 02:41:05;;;;;;;3.83;1.05;;;19.60;71.90;;;;;;2069670;28;20026;-53
2023/12/22 02:42:06;;;;;;;3.70;0.88;;;19.60;71.90;;;;;;2070235;28;20105;-51
2023/12/22 02:43:07;;;;;;;2.83;1.00;;;19.60;71.70;;;;;;2069868;28;20026;-50
2023/12/22 02:44:08;;;;;;;3.35;0.90;;;19.50;71.60;;;;;;2066450;28;20481;-50
2023/12/22 02:45:19;;;;;;;3.65;1.10;;;19.60;71.60;;;;;;2071773;28;20037;-51
2023/12/22 02:46:19;;;;;;;5.20;1.27;;;19.60;71.40;;;;;;2064364;28;20022;-50
2023/12/22 02:47:20;;;;;;;2.47;0.95;;;19.60;71.40;;;;;;2069980;28;20037;-51
2023/12/22 02:48:20;;;;;;;4.90;0.98;;;19.60;71.30;;;;;;2070464;28;20109;-51
2023/12/22 02:49:21;;;;;;;2.80;0.90;;;19.60;71.20;;;;;;2067527;28;20134;-54
2023/12/22 02:50:21;;;;;;;5.18;1.08;;;19.50;71.00;;;;;;2069390;28;20081;-50
2023/12/22 02:51:22;;;;;;;4.30;1.00;;;19.60;71.10;;;;;;2069564;28;20298;-54
2023/12/22 02:52:22;;;;;;;5.43;1.00;;;19.50;71.00;;;;;;2067653;28;20022;-51
2023/12/22 02:53:23;;;;;;;3.55;1.40;;;19.50;71.00;;;;;;2069026;28;20117;-51
2023/12/22 02:54:24;;;;;;;5.32;1.40;;;19.60;71.00;;;;;;2067427;28;20025;-51
2023/12/22 02:55:24;;;;;;;2.55;1.10;;;19.60;70.80;;;;;;2070544;28;20026;-51
2023/12/22 02:56:25;;;;;;;3.13;0.98;;;19.60;70.80;;;;;;2068461;28;20026;-51
2023/12/22 02:57:25;;;;;;;3.33;0.85;;;19.50;70.70;;;;;;2071244;28;20025;-50
2023/12/22 02:58:26;;;;;;;3.70;1.48;;;19.50;70.60;;;;;;2070575;28;20033;-53
2023/12/22 02:59:28;;;;;;;3.45;0.90;;;19.60;70.60;;;;;;2070611;28;20101;-51
2023/12/22 03:00:28;;;;;;;3.85;1.88;;;19.60;70.60;;;;;;2069584;28;20541;-51
2023/12/22 03:01:29;;;;;;;4.55;0.90;;;19.60;70.60;;;;;;2066353;28;20030;-51
2023/12/22 03:02:29;;;;;;;3.65;1.05;;;19.60;70.60;;;;;;2068793;28;20037;-54
2023/12/22 03:03:30;;;;;;;4.40;1.05;;;19.50;70.60;;;;;;2070946;28;20038;-52
2023/12/22 03:04:31;;;;;;;3.80;0.93;;;19.50;70.70;;;;;;2070397;28;20033;-51
2023/12/22 03:05:31;;;;;;;4.38;1.10;;;19.50;70.80;;;;;;2070992;28;20045;-50
2023/12/22 03:06:32;;;;;;;2.35;0.80;;;19.50;70.90;;;;;;2068761;28;20027;-51
2023/12/22 03:07:32;;;;;;;3.00;1.10;;;19.60;70.90;;;;;;2068044;28;20038;-51
2023/12/22 03:08:33;;;;;;;4.03;1.05;;;19.50;70.80;;;;;;2064505;28;20053;-54
2023/12/22 03:09:34;;;;;;;2.88;1.02;;;19.60;70.80;;;;;;2067106;28;20044;-51
2023/12/22 03:10:34;;;;;;;2.70;0.95;;;19.50;70.80;;;;;;2071141;28;20024;-51
2023/12/22 03:11:35;;;;;;;3.35;1.10;;;19.50;70.90;;;;;;2071028;28;20057;-50
2023/12/22 03:12:35;;;;;;;3.70;1.10;;;19.50;70.90;;;;;;2066935;28;20471;-51
2023/12/22 03:13:36;;;;;;;3.45;0.85;;;19.50;70.90;;;;;;2068847;28;20496;-50
2023/12/22 03:14:37;;;;;;;2.70;0.80;;;19.50;70.90;;;;;;2066643;28;20534;-50
2023/12/22 03:15:37;;;;;;;2.83;0.70;;;19.50;71.00;;;;;;2069173;28;20025;-52
2023/12/22 03:16:39;;;;;;;2.05;0.93;;;19.50;71.00;;;;;;2070811;28;20036;-51
2023/12/22 03:17:39;;;;;;;2.88;0.95;;;19.50;70.90;;;;;;2067128;28;20108;-51
2023/12/22 03:18:40;;;;;;;2.42;1.00;;;19.50;70.90;;;;;;2069799;28;20026;-50
2023/12/22 03:19:40;;;;;;;3.28;0.80;;;19.50;71.00;;;;;;2068178;28;20101;-51
2023/12/22 03:20:41;;;;;;;3.47;0.85;;;19.50;70.90;;;;;;2070814;28;20382;-54
2023/12/22 03:21:41;;;;;;;3.00;0.77;;;19.50;70.80;;;;;;2069800;28;20548;-51
2023/12/22 03:22:42;;;;;;;4.65;1.02;;;19.50;70.70;;;;;;2071223;28;20643;-51
2023/12/22 03:23:42;;;;;;;3.33;0.65;;;19.50;70.70;;;;;;2067211;28;20024;-51
2023/12/22 03:24:44;;;;;;;4.47;0.98;;;19.50;70.70;;;;;;2070855;28;20108;-54
2023/12/22 03:25:44;;;;;;;2.45;0.82;;;19.50;70.70;;;;;;2067868;28;20256;-51
2023/12/22 03:26:46;;;;;;;4.05;1.08;;;19.50;70.70;;;;;;2069702;28;20041;-54
2023/12/22 03:27:46;;;;;;;2.40;1.10;;;19.50;70.80;;;;;;2068423;28;20010;-51
2023/12/22 03:28:47;;;;;;;3.53;0.63;;;19.50;70.90;;;;;;2069990;28;20033;-50
2023/12/22 03:29:47;;;;;;;4.13;1.00;;;19.50;70.80;;;;;;2070103;28;20033;-50
2023/12/22 03:30:48;;;;;;;3.90;1.00;;;19.40;70.80;;;;;;2070200;28;20048;-52
2023/12/22 03:31:48;;;;;;;2.30;1.02;;;19.40;70.80;;;;;;2068737;28;20489;-52
2023/12/22 03:32:49;;;;;;;1.92;0.80;;;19.50;70.80;;;;;;2069414;28;20385;-51
2023/12/22 03:33:49;;;;;;;4.20;0.90;;;19.50;70.80;;;;;;2069198;28;20030;-53
2023/12/22 03:34:50;;;;;;;3.28;0.60;;;19.50;70.70;;;;;;2070326;28;20168;-50
2023/12/22 03:35:50;;;;;;;2.22;0.70;;;19.40;70.60;;;;;;2069488;28;20026;-50
2023/12/22 03:36:51;;;;;;;2.92;0.70;;;19.40;70.60;;;;;;2069522;28;20026;-51
2023/12/22 03:37:51;;;;;;;3.67;0.88;;;19.40;70.60;;;;;;2070048;28;20477;-51
2023/12/22 03:38:52;;;;;;;2.00;0.55;;;19.40;70.50;;;;;;2069836;28;20029;-53
2023/12/22 03:39:53;;;;;;;4.55;0.90;;;19.40;70.40;;;;;;2067684;28;20030;-52
2023/12/22 03:40:53;;;;;;;3.70;0.55;;;19.50;70.40;;;;;;2068571;28;20030;-52
2023/12/22 03:41:54;;;;;;;3.83;1.10;;;19.50;70.50;;;;;;2069459;28;20018;-50
2023/12/22 03:42:55;;;;;;;3.83;0.93;;;19.50;70.50;;;;;;2069724;28;20415;-50
2023/12/22 03:43:56;;;;;;;3.83;0.63;;;19.40;70.40;;;;;;2069332;28;20018;-51
2023/12/22 03:44:56;;;;;;;5.60;0.65;;;19.40;70.40;;;;;;2067695;28;20026;-51
2023/12/22 03:45:57;;;;;;;3.78;0.77;;;19.40;70.40;;;;;;2069781;28;20030;-51
2023/12/22 03:46:58;;;;;;;3.33;0.70;;;19.50;70.30;;;;;;2065904;28;20022;-53
2023/12/22 03:47:58;;;;;;;3.28;0.75;;;19.40;70.30;;;;;;2068022;28;20437;-51
2023/12/22 03:48:59;;;;;;;3.90;0.90;;;19.40;70.30;;;;;;2069973;28;20346;-51
2023/12/22 03:49:59;;;;;;;2.67;0.80;;;19.40;70.30;;;;;;2069891;28;20099;-54
2023/12/22 03:51:00;;;;;;;4.20;0.80;;;19.40;71.00;;;;;;2069592;28;20037;-51
2023/12/22 03:52:00;;;;;;;2.67;0.90;;;19.50;70.50;;;;;;2069951;28;20018;-52
2023/12/22 03:53:01;;;;;;;3.75;0.95;;;19.40;70.50;;;;;;2070633;28;20030;-51
2023/12/22 03:54:02;;;;;;;2.53;0.60;;;19.40;70.50;;;;;;2070161;28;20062;-52
2023/12/22 03:55:03;;;;;;;5.90;1.13;;;19.30;70.50;;;;;;2067277;28;20117;-50
2023/12/22 03:56:03;;;;;;;2.85;0.80;;;19.40;70.50;;;;;;2068186;28;20033;-51
2023/12/22 03:57:04;;;;;;;1.75;0.70;;;19.40;70.50;;;;;;2070357;28;20037;-51
2023/12/22 03:58:07;;;;;;;2.22;0.73;;;19.40;70.50;;;;;;2071157;28;20037;-52
2023/12/22 03:59:07;;;;;;;1.92;0.75;;;19.40;70.50;;;;;;2069769;28;20018;-50
2023/12/22 04:00:08;;;;;;;3.67;0.70;;;19.40;70.40;;;;;;2070544;28;20076;-54
2023/12/22 04:01:09;;;;;;;2.30;0.60;;;19.40;70.40;;;;;;2069469;28;20058;-53
2023/12/22 04:02:09;;;;;;;2.88;0.95;;;19.40;70.40;;;;;;2070453;28;20033;-51
2023/12/22 04:03:10;;;;;;;5.00;1.05;;;19.40;70.40;;;;;;2069591;28;20532;-51
2023/12/22 04:04:10;;;;;;;1.65;0.50;;;19.40;70.40;;;;;;2069879;28;20037;-50
2023/12/22 04:05:11;;;;;;;2.25;0.77;;;19.40;70.30;;;;;;2069806;28;20030;-54
2023/12/22 04:06:12;;;;;;;4.53;1.00;;;19.40;70.40;;;;;;2065403;28;20033;-51
2023/12/22 04:07:12;;;;;;;3.13;1.08;;;19.40;70.40;;;;;;2069699;28;20037;-50
2023/12/22 04:08:13;;;;;;;2.42;0.60;;;19.40;70.30;;;;;;2071121;28;20025;-51
2023/12/22 04:09:14;;;;;;;3.90;0.68;;;19.40;70.30;;;;;;2066236;28;20559;-51
2023/12/22 04:10:17;;;;;;;3.90;0.68;;;19.40;70.30;;;;;;2065097;28;20056;-52
2023/12/22 04:11:18;;;;;;;2.88;0.70;;;19.30;70.40;;;;;;2070239;28;20080;-50
2023/12/22 04:12:18;;;;;;;1.65;0.60;;;19.40;70.40;;;;;;2066726;28;20030;-51
2023/12/22 04:13:19;;;;;;;3.35;1.35;;;19.40;70.30;;;;;;2068479;28;20018;-50
2023/12/22 04:14:19;;;;;;;2.88;0.93;;;19.40;70.30;;;;;;2066914;28;20022;-54
2023/12/22 04:15:20;;;;;;;3.25;0.85;;;19.40;70.30;;;;;;2069377;28;20097;-50
2023/12/22 04:16:20;;;;;;;2.78;0.70;;;19.40;70.30;;;;;;2067760;28;20034;-52
2023/12/22 04:17:21;;;;;;;2.35;0.70;;;19.40;70.40;;;;;;2070467;28;20092;-52
2023/12/22 04:18:21;;;;;;;3.10;0.80;;;19.30;70.40;;;;;;2069757;28;20054;-50
2023/12/22 04:19:22;;;;;;;4.18;0.80;;;19.40;70.30;;;;;;2063953;28;20109;-53
2023/12/22 04:20:23;;;;;;;1.80;0.90;;;19.30;70.30;;;;;;2067828;28;20041;-50
2023/12/22 04:21:24;;;;;;;5.18;1.58;;;19.30;70.30;;;;;;2069264;28;20108;-51
2023/12/22 04:22:24;;;;;;;2.22;0.90;;;19.30;70.60;;;;;;2068030;28;20042;-50
2023/12/22 04:23:25;;;;;;;2.88;0.60;;;19.40;71.10;;;;;;2067420;28;20283;-51
2023/12/22 04:24:25;;;;;;;3.10;1.00;;;19.30;70.50;;;;;;2070712;28;20034;-50
2023/12/22 04:25:26;;;;;;;2.88;0.80;;;19.30;70.50;;;;;;2070033;28;20057;-51
2023/12/22 04:26:27;;;;;;;2.65;0.90;;;19.20;70.40;;;;;;2068902;28;20574;-50
2023/12/22 04:27:27;;;;;;;3.55;0.95;;;19.40;70.40;;;;;;2070521;28;20172;-52
2023/12/22 04:28:28;;;;;;;3.78;1.42;;;19.30;70.30;;;;;;2070004;28;20495;-50
2023/12/22 04:29:28;;;;;;;2.60;0.73;;;19.40;70.50;;;;;;2070214;28;20033;-50
2023/12/22 04:30:29;;;;;;;2.63;0.90;;;19.30;70.50;;;;;;2069810;28;20060;-52
2023/12/22 04:31:29;;;;;;;3.00;0.88;;;19.30;70.60;;;;;;2067196;28;20428;-50
2023/12/22 04:32:30;;;;;;;3.35;0.93;;;19.30;70.50;;;;;;2069757;28;20385;-53
2023/12/22 04:33:30;;;;;;;4.80;1.13;;;19.30;70.50;;;;;;2070367;28;20105;-50
2023/12/22 04:34:31;;;;;;;3.03;0.85;;;19.30;70.40;;;;;;2068130;28;20504;-51
2023/12/22 04:35:31;;;;;;;2.97;1.00;;;19.30;70.40;;;;;;2068446;28;20137;-54
2023/12/22 04:36:32;;;;;;;1.90;0.80;;;19.30;70.40;;;;;;2065411;28;20047;-51
2023/12/22 04:37:33;;;;;;;3.10;0.85;;;19.30;70.30;;;;;;2066994;28;20088;-50
2023/12/22 04:38:33;;;;;;;3.90;0.77;;;19.30;70.40;;;;;;2067062;28;20025;-54
2023/12/22 04:39:34;;;;;;;2.58;0.70;;;19.30;70.40;;;;;;2067529;28;20117;-50
2023/12/22 04:40:35;;;;;;;2.53;0.73;;;19.30;70.40;;;;;;2066192;28;20400;-51
2023/12/22 04:41:36;;;;;;;2.35;0.70;;;19.30;70.40;;;;;;2067482;28;20057;-51
2023/12/22 04:42:36;;;;;;;3.83;0.88;;;19.30;70.40;;;;;;2069454;28;20105;-52
2023/12/22 04:43:37;;;;;;;3.78;0.80;;;19.30;70.50;;;;;;2069609;28;20037;-52
2023/12/22 04:44:37;;;;;;;2.33;0.65;;;19.30;70.50;;;;;;2071404;28;20473;-51
2023/12/22 04:45:38;;;;;;;1.83;0.70;;;19.30;70.40;;;;;;2071720;28;20555;-54
2023/12/22 04:46:38;;;;;;;1.95;0.77;;;19.30;70.40;;;;;;2072582;28;20029;-51
2023/12/22 04:47:39;;;;;;;1.63;0.65;;;19.30;70.40;;;;;;2067919;28;20029;-54
2023/12/22 04:48:39;;;;;;;3.15;0.70;;;19.30;70.50;;;;;;2070720;28;20069;-50
2023/12/22 04:49:40;;;;;;;2.85;0.75;;;19.30;70.60;;;;;;2069898;28;20121;-51
2023/12/22 04:50:40;;;;;;;2.60;0.90;;;19.30;70.60;;;;;;2068019;28;20277;-51
2023/12/22 04:51:42;;;;;;;3.08;0.68;;;19.30;70.50;;;;;;2071497;28;20033;-51
2023/12/22 04:52:43;;;;;;;2.22;0.60;;;19.30;70.50;;;;;;2069838;28;20029;-53
2023/12/22 04:53:43;;;;;;;2.38;0.80;;;19.30;70.50;;;;;;2071193;28;20021;-50
2023/12/22 04:54:44;;;;;;;3.35;1.10;;;19.30;70.50;;;;;;2068212;28;20481;-51
2023/12/22 04:55:44;;;;;;;2.78;0.80;;;19.30;70.60;;;;;;2069408;28;20230;-54
2023/12/22 04:56:45;;;;;;;3.40;0.70;;;19.30;70.50;;;;;;2069557;28;20492;-51
2023/12/22 04:57:45;;;;;;;3.03;0.70;;;19.30;70.60;;;;;;2066898;28;20022;-53
2023/12/22 04:58:46;;;;;;;6.40;0.93;;;19.30;70.60;;;;;;2069697;28;20018;-52
2023/12/22 04:59:46;;;;;;;2.90;0.77;;;19.20;70.60;;;;;;2068816;28;20030;-50
2023/12/22 05:00:47;;;;;;;2.63;0.82;;;19.20;70.50;;;;;;2068533;28;20037;-52
2023/12/22 05:01:48;;;;;;;1.92;0.88;;;19.20;70.50;;;;;;2068051;28;20072;-50
2023/12/22 05:02:48;;;;;;;4.10;0.77;;;19.20;70.40;;;;;;2068009;28;20101;-50
2023/12/22 05:03:49;;;;;;;3.70;1.15;;;19.20;70.30;;;;;;2072088;28;20021;-51
2023/12/22 05:04:50;;;;;;;2.78;0.90;;;19.20;70.20;;;;;;2070654;28;20101;-52
2023/12/22 05:05:50;;;;;;;2.45;0.90;;;19.20;70.20;;;;;;2071278;28;20404;-52
2023/12/22 05:06:51;;;;;;;3.85;0.75;;;19.20;70.30;;;;;;2071330;28;20026;-52
2023/12/22 05:07:51;;;;;;;3.25;0.80;;;19.20;70.20;;;;;;2070430;28;20057;-50
2023/12/22 05:08:52;;;;;;;2.13;0.60;;;19.20;70.40;;;;;;2069695;28;20030;-51
2023/12/22 05:09:54;;;;;;;2.35;0.80;;;19.30;70.40;;;;;;2067779;28;20053;-52
2023/12/22 05:10:54;;;;;;;4.45;0.80;;;19.20;70.40;;;;;;2071132;28;20026;-50
2023/12/22 05:11:55;;;;;;;3.38;0.90;;;19.20;70.40;;;;;;2070643;28;20083;-50
2023/12/22 05:12:56;;;;;;;1.92;0.52;;;19.30;70.50;;;;;;2066827;28;20302;-54
2023/12/22 05:13:56;;;;;;;3.05;0.80;;;19.20;70.40;;;;;;2068349;28;20022;-50
2023/12/22 05:14:57;;;;;;;2.92;0.70;;;19.20;70.30;;;;;;2067663;28;20358;-50
2023/12/22 05:15:57;;;;;;;4.65;0.98;;;19.30;70.30;;;;;;2068103;28;20528;-51
2023/12/22 05:16:58;;;;;;;2.65;1.38;;;19.20;70.80;;;;;;2072565;28;20104;-52
2023/12/22 05:17:58;;;;;;;2.38;0.90;;;19.20;70.30;;;;;;2070990;28;20096;-52
2023/12/22 05:18:59;;;;;;;3.60;0.90;;;19.10;70.30;;;;;;2071150;28;20010;-50